sensor_id;sensor_type;location;lat;lon;timestamp;P1;durP1;ratioP1;P2;durP2;ratioP2
71671;SDS011;67659;45.554;11.812;2023-03-01T00:02:01;18.83;;;8.50;;
71671;SDS011;67659;45.554;11.812;2023-03-01T00:04:26;17.95;;;8.40;;
71671;SDS011;67659;45.554;11.812;2023-03-01T00:06:53;17.63;;;7.97;;
71671;SDS011;67659;45.554;11.812;2023-03-01T00:09:19;18.87;;;8.83;;
71671;SDS011;67659;45.554;11.812;2023-03-01T00:11:45;17.92;;;8.60;;
71671;SDS011;67659;45.554;11.812;2023-03-01T00:14:11;17.50;;;8.15;;
71671;SDS011;67659;45.554;11.812;2023-03-01T00:16:38;17.42;;;8.23;;
71671;SDS011;67659;45.554;11.812;2023-03-01T00:19:06;18.73;;;8.77;;
71671;SDS011;67659;45.554;11.812;2023-03-01T00:21:34;18.40;;;8.60;;
71671;SDS011;67659;45.554;11.812;2023-03-01T00:24:00;21.42;;;10.23;;
71671;SDS011;67659;45.554;11.812;2023-03-01T00:26:27;24.52;;;13.02;;
71671;SDS011;67659;45.554;11.812;2023-03-01T00:28:53;43.72;;;23.95;;
71671;SDS011;67659;45.554;11.812;2023-03-01T00:31:22;28.67;;;16.25;;
71671;SDS011;67659;45.554;11.812;2023-03-01T00:33:52;32.37;;;16.47;;
71671;SDS011;67659;45.554;11.812;2023-03-01T00:36:22;28.42;;;15.73;;
71671;SDS011;67659;45.554;11.812;2023-03-01T00:38:52;26.83;;;14.80;;
71671;SDS011;67659;45.554;11.812;2023-03-01T00:41:19;19.85;;;9.50;;
71671;SDS011;67659;45.554;11.812;2023-03-01T00:43:48;17.55;;;8.45;;
71671;SDS011;67659;45.554;11.812;2023-03-01T00:46:15;18.90;;;9.57;;
71671;SDS011;67659;45.554;11.812;2023-03-01T00:48:43;19.85;;;10.10;;
71671;SDS011;67659;45.554;11.812;2023-03-01T00:53:36;19.55;;;11.02;;
71671;SDS011;67659;45.554;11.812;2023-03-01T00:56:03;18.75;;;8.82;;
71671;SDS011;67659;45.554;11.812;2023-03-01T00:58:30;19.63;;;9.23;;
71671;SDS011;67659;45.554;11.812;2023-03-01T01:00:57;16.58;;;8.35;;
71671;SDS011;67659;45.554;11.812;2023-03-01T01:03:46;17.17;;;7.88;;
71671;SDS011;67659;45.554;11.812;2023-03-01T01:06:14;17.63;;;8.05;;
71671;SDS011;67659;45.554;11.812;2023-03-01T01:08:42;17.42;;;8.40;;
71671;SDS011;67659;45.554;11.812;2023-03-01T01:11:09;18.43;;;8.50;;
71671;SDS011;67659;45.554;11.812;2023-03-01T01:13:36;18.15;;;8.35;;
71671;SDS011;67659;45.554;11.812;2023-03-01T01:16:03;15.40;;;7.50;;
71671;SDS011;67659;45.554;11.812;2023-03-01T01:18:29;19.83;;;8.60;;
71671;SDS011;67659;45.554;11.812;2023-03-01T01:20:55;15.50;;;7.17;;
71671;SDS011;67659;45.554;11.812;2023-03-01T01:23:21;15.88;;;7.05;;
71671;SDS011;67659;45.554;11.812;2023-03-01T01:25:50;16.10;;;7.20;;
71671;SDS011;67659;45.554;11.812;2023-03-01T01:28:25;17.00;;;7.60;;
71671;SDS011;67659;45.554;11.812;2023-03-01T01:30:50;16.17;;;7.15;;
71671;SDS011;67659;45.554;11.812;2023-03-01T01:33:16;16.23;;;7.43;;
71671;SDS011;67659;45.554;11.812;2023-03-01T01:35:44;16.23;;;7.60;;
71671;SDS011;67659;45.554;11.812;2023-03-01T01:38:11;14.70;;;7.13;;
71671;SDS011;67659;45.554;11.812;2023-03-01T01:40:43;16.38;;;7.93;;
71671;SDS011;67659;45.554;11.812;2023-03-01T01:43:20;18.17;;;7.80;;
71671;SDS011;67659;45.554;11.812;2023-03-01T01:45:49;16.65;;;7.65;;
71671;SDS011;67659;45.554;11.812;2023-03-01T01:48:19;18.27;;;8.57;;
71671;SDS011;67659;45.554;11.812;2023-03-01T01:50:49;18.48;;;8.35;;
71671;SDS011;67659;45.554;11.812;2023-03-01T01:53:24;19.65;;;8.48;;
71671;SDS011;67659;45.554;11.812;2023-03-01T01:55:54;17.73;;;8.17;;
71671;SDS011;67659;45.554;11.812;2023-03-01T01:58:23;19.48;;;8.60;;
71671;SDS011;67659;45.554;11.812;2023-03-01T02:00:52;18.42;;;8.20;;
71671;SDS011;67659;45.554;11.812;2023-03-01T02:03:23;17.80;;;8.30;;
71671;SDS011;67659;45.554;11.812;2023-03-01T02:05:58;18.05;;;8.10;;
71671;SDS011;67659;45.554;11.812;2023-03-01T02:08:30;18.50;;;8.43;;
71671;SDS011;67659;45.554;11.812;2023-03-01T02:11:00;19.50;;;8.38;;
71671;SDS011;67659;45.554;11.812;2023-03-01T02:13:30;17.60;;;8.30;;
71671;SDS011;67659;45.554;11.812;2023-03-01T02:15:57;18.67;;;8.30;;
71671;SDS011;67659;45.554;11.812;2023-03-01T02:18:23;17.23;;;8.20;;
71671;SDS011;67659;45.554;11.812;2023-03-01T02:23:41;16.90;;;7.75;;
71671;SDS011;67659;45.554;11.812;2023-03-01T02:26:12;18.48;;;9.43;;
71671;SDS011;67659;45.554;11.812;2023-03-01T02:28:42;19.85;;;9.48;;
71671;SDS011;67659;45.554;11.812;2023-03-01T02:31:09;26.90;;;13.52;;
71671;SDS011;67659;45.554;11.812;2023-03-01T02:33:58;73.53;;;31.33;;
71671;SDS011;67659;45.554;11.812;2023-03-01T02:36:25;103.95;;;35.78;;
71671;SDS011;67659;45.554;11.812;2023-03-01T02:38:58;120.88;;;43.72;;
71671;SDS011;67659;45.554;11.812;2023-03-01T02:41:28;115.72;;;55.65;;
71671;SDS011;67659;45.554;11.812;2023-03-01T02:43:59;22.33;;;12.82;;
71671;SDS011;67659;45.554;11.812;2023-03-01T02:46:25;24.03;;;13.40;;
71671;SDS011;67659;45.554;11.812;2023-03-01T02:48:52;26.70;;;15.05;;
71671;SDS011;67659;45.554;11.812;2023-03-01T02:54:06;22.08;;;13.15;;
71671;SDS011;67659;45.554;11.812;2023-03-01T02:56:37;22.90;;;14.80;;
71671;SDS011;67659;45.554;11.812;2023-03-01T02:59:03;18.33;;;8.50;;
71671;SDS011;67659;45.554;11.812;2023-03-01T03:01:29;17.17;;;7.72;;
71671;SDS011;67659;45.554;11.812;2023-03-01T03:04:02;16.30;;;7.78;;
71671;SDS011;67659;45.554;11.812;2023-03-01T03:06:32;18.13;;;10.00;;
71671;SDS011;67659;45.554;11.812;2023-03-01T03:08:58;15.07;;;7.30;;
71671;SDS011;67659;45.554;11.812;2023-03-01T03:11:24;17.67;;;8.05;;
71671;SDS011;67659;45.554;11.812;2023-03-01T03:13:51;45.40;;;24.80;;
71671;SDS011;67659;45.554;11.812;2023-03-01T03:16:17;88.10;;;39.37;;
71671;SDS011;67659;45.554;11.812;2023-03-01T03:18:44;23.20;;;12.52;;
71671;SDS011;67659;45.554;11.812;2023-03-01T03:21:11;16.73;;;8.70;;
71671;SDS011;67659;45.554;11.812;2023-03-01T03:23:37;18.90;;;8.95;;
71671;SDS011;67659;45.554;11.812;2023-03-01T03:26:04;15.25;;;8.13;;
71671;SDS011;67659;45.554;11.812;2023-03-01T03:28:31;15.23;;;7.23;;
71671;SDS011;67659;45.554;11.812;2023-03-01T03:30:57;14.48;;;6.80;;
71671;SDS011;67659;45.554;11.812;2023-03-01T03:33:23;14.85;;;7.07;;
71671;SDS011;67659;45.554;11.812;2023-03-01T03:35:49;15.50;;;6.78;;
71671;SDS011;67659;45.554;11.812;2023-03-01T03:38:17;15.10;;;6.47;;
71671;SDS011;67659;45.554;11.812;2023-03-01T03:40:50;13.82;;;6.43;;
71671;SDS011;67659;45.554;11.812;2023-03-01T03:43:27;14.63;;;6.63;;
71671;SDS011;67659;45.554;11.812;2023-03-01T03:45:55;15.93;;;6.78;;
71671;SDS011;67659;45.554;11.812;2023-03-01T03:48:22;14.77;;;6.57;;
71671;SDS011;67659;45.554;11.812;2023-03-01T03:50:50;15.20;;;7.03;;
71671;SDS011;67659;45.554;11.812;2023-03-01T03:53:20;15.68;;;7.25;;
71671;SDS011;67659;45.554;11.812;2023-03-01T03:55:47;14.57;;;6.40;;
71671;SDS011;67659;45.554;11.812;2023-03-01T03:58:17;14.50;;;6.70;;
71671;SDS011;67659;45.554;11.812;2023-03-01T04:00:45;14.63;;;6.70;;
71671;SDS011;67659;45.554;11.812;2023-03-01T04:03:12;16.00;;;6.83;;
71671;SDS011;67659;45.554;11.812;2023-03-01T04:05:40;16.10;;;6.65;;
71671;SDS011;67659;45.554;11.812;2023-03-01T04:08:06;13.93;;;6.53;;
71671;SDS011;67659;45.554;11.812;2023-03-01T04:10:40;15.13;;;6.70;;
71671;SDS011;67659;45.554;11.812;2023-03-01T04:13:10;13.82;;;6.47;;
71671;SDS011;67659;45.554;11.812;2023-03-01T04:15:37;13.30;;;6.20;;
71671;SDS011;67659;45.554;11.812;2023-03-01T04:18:04;14.57;;;6.30;;
71671;SDS011;67659;45.554;11.812;2023-03-01T04:20:31;16.05;;;6.20;;
71671;SDS011;67659;45.554;11.812;2023-03-01T04:23:04;13.25;;;6.00;;
71671;SDS011;67659;45.554;11.812;2023-03-01T04:25:39;13.13;;;5.95;;
71671;SDS011;67659;45.554;11.812;2023-03-01T04:28:07;15.07;;;6.33;;
71671;SDS011;67659;45.554;11.812;2023-03-01T04:30:34;13.90;;;6.32;;
71671;SDS011;67659;45.554;11.812;2023-03-01T04:33:04;14.73;;;6.43;;
71671;SDS011;67659;45.554;11.812;2023-03-01T04:35:32;13.23;;;6.30;;
71671;SDS011;67659;45.554;11.812;2023-03-01T04:37:58;13.80;;;6.15;;
71671;SDS011;67659;45.554;11.812;2023-03-01T04:40:24;14.60;;;6.47;;
71671;SDS011;67659;45.554;11.812;2023-03-01T04:42:50;12.95;;;5.97;;
71671;SDS011;67659;45.554;11.812;2023-03-01T04:45:15;13.48;;;5.63;;
71671;SDS011;67659;45.554;11.812;2023-03-01T04:47:42;13.50;;;6.13;;
71671;SDS011;67659;45.554;11.812;2023-03-01T04:50:10;13.82;;;6.28;;
71671;SDS011;67659;45.554;11.812;2023-03-01T04:52:38;15.77;;;6.20;;
71671;SDS011;67659;45.554;11.812;2023-03-01T04:55:04;12.73;;;6.13;;
71671;SDS011;67659;45.554;11.812;2023-03-01T04:57:30;13.90;;;6.20;;
71671;SDS011;67659;45.554;11.812;2023-03-01T04:59:57;13.95;;;6.00;;
71671;SDS011;67659;45.554;11.812;2023-03-01T05:02:22;12.00;;;5.60;;
71671;SDS011;67659;45.554;11.812;2023-03-01T05:04:48;11.90;;;5.53;;
71671;SDS011;67659;45.554;11.812;2023-03-01T05:07:14;13.73;;;5.87;;
71671;SDS011;67659;45.554;11.812;2023-03-01T05:09:45;13.07;;;5.68;;
71671;SDS011;67659;45.554;11.812;2023-03-01T05:12:11;13.00;;;5.45;;
71671;SDS011;67659;45.554;11.812;2023-03-01T05:14:37;15.70;;;6.00;;
71671;SDS011;67659;45.554;11.812;2023-03-01T05:17:04;12.27;;;5.57;;
71671;SDS011;67659;45.554;11.812;2023-03-01T05:19:30;13.13;;;5.30;;
71671;SDS011;67659;45.554;11.812;2023-03-01T05:21:57;12.60;;;5.60;;
71671;SDS011;67659;45.554;11.812;2023-03-01T05:24:27;11.52;;;5.00;;
71671;SDS011;67659;45.554;11.812;2023-03-01T05:26:53;13.32;;;5.32;;
71671;SDS011;67659;45.554;11.812;2023-03-01T05:29:20;13.27;;;5.40;;
71671;SDS011;67659;45.554;11.812;2023-03-01T05:31:53;12.90;;;5.03;;
71671;SDS011;67659;45.554;11.812;2023-03-01T05:34:28;11.48;;;5.18;;
71671;SDS011;67659;45.554;11.812;2023-03-01T05:36:59;13.05;;;4.80;;
71671;SDS011;67659;45.554;11.812;2023-03-01T05:39:25;10.98;;;5.07;;
71671;SDS011;67659;45.554;11.812;2023-03-01T05:41:56;11.50;;;4.80;;
71671;SDS011;67659;45.554;11.812;2023-03-01T05:44:24;10.67;;;5.00;;
71671;SDS011;67659;45.554;11.812;2023-03-01T05:46:50;10.40;;;4.38;;
71671;SDS011;67659;45.554;11.812;2023-03-01T05:49:17;13.32;;;5.13;;
71671;SDS011;67659;45.554;11.812;2023-03-01T05:51:43;17.30;;;5.00;;
71671;SDS011;67659;45.554;11.812;2023-03-01T05:54:13;13.93;;;4.38;;
71671;SDS011;67659;45.554;11.812;2023-03-01T05:56:40;49.50;;;5.73;;
71671;SDS011;67659;45.554;11.812;2023-03-01T05:59:05;12.30;;;4.55;;
71671;SDS011;67659;45.554;11.812;2023-03-01T06:01:32;10.10;;;4.60;;
71671;SDS011;67659;45.554;11.812;2023-03-01T06:03:59;12.55;;;4.70;;
71671;SDS011;67659;45.554;11.812;2023-03-01T06:06:26;10.32;;;4.55;;
71671;SDS011;67659;45.554;11.812;2023-03-01T06:08:52;10.23;;;4.22;;
71671;SDS011;67659;45.554;11.812;2023-03-01T06:11:18;10.07;;;4.90;;
71671;SDS011;67659;45.554;11.812;2023-03-01T06:13:45;10.47;;;4.53;;
71671;SDS011;67659;45.554;11.812;2023-03-01T06:16:11;10.63;;;4.45;;
71671;SDS011;67659;45.554;11.812;2023-03-01T06:18:38;10.40;;;4.68;;
71671;SDS011;67659;45.554;11.812;2023-03-01T06:21:05;11.77;;;4.78;;
71671;SDS011;67659;45.554;11.812;2023-03-01T06:23:32;11.43;;;5.22;;
71671;SDS011;67659;45.554;11.812;2023-03-01T06:25:58;19.70;;;8.07;;
71671;SDS011;67659;45.554;11.812;2023-03-01T06:28:24;33.45;;;15.82;;
71671;SDS011;67659;45.554;11.812;2023-03-01T06:30:49;18.23;;;11.80;;
71671;SDS011;67659;45.554;11.812;2023-03-01T06:33:16;38.00;;;16.15;;
71671;SDS011;67659;45.554;11.812;2023-03-01T06:35:45;105.17;;;45.80;;
71671;SDS011;67659;45.554;11.812;2023-03-01T06:38:11;25.83;;;14.20;;
71671;SDS011;67659;45.554;11.812;2023-03-01T06:40:40;76.28;;;38.22;;
71671;SDS011;67659;45.554;11.812;2023-03-01T06:43:06;22.63;;;13.60;;
71671;SDS011;67659;45.554;11.812;2023-03-01T06:45:32;15.77;;;9.02;;
71671;SDS011;67659;45.554;11.812;2023-03-01T06:48:05;13.57;;;6.87;;
71671;SDS011;67659;45.554;11.812;2023-03-01T06:50:32;19.65;;;11.88;;
71671;SDS011;67659;45.554;11.812;2023-03-01T06:52:58;17.65;;;7.80;;
71671;SDS011;67659;45.554;11.812;2023-03-01T06:55:24;16.98;;;9.68;;
71671;SDS011;67659;45.554;11.812;2023-03-01T06:57:54;12.57;;;6.50;;
71671;SDS011;67659;45.554;11.812;2023-03-01T07:00:21;13.43;;;7.32;;
71671;SDS011;67659;45.554;11.812;2023-03-01T07:02:48;25.35;;;15.60;;
71671;SDS011;67659;45.554;11.812;2023-03-01T07:05:13;109.80;;;46.90;;
71671;SDS011;67659;45.554;11.812;2023-03-01T07:07:39;86.40;;;39.40;;
71671;SDS011;67659;45.554;11.812;2023-03-01T07:10:05;36.38;;;21.75;;
71671;SDS011;67659;45.554;11.812;2023-03-01T07:12:32;19.08;;;10.32;;
71671;SDS011;67659;45.554;11.812;2023-03-01T07:14:58;13.53;;;8.10;;
71671;SDS011;67659;45.554;11.812;2023-03-01T07:17:23;14.02;;;7.05;;
71671;SDS011;67659;45.554;11.812;2023-03-01T07:19:49;15.15;;;6.35;;
71671;SDS011;67659;45.554;11.812;2023-03-01T07:22:15;15.47;;;6.50;;
71671;SDS011;67659;45.554;11.812;2023-03-01T07:24:42;14.70;;;6.30;;
71671;SDS011;67659;45.554;11.812;2023-03-01T07:27:08;13.90;;;6.22;;
71671;SDS011;67659;45.554;11.812;2023-03-01T07:29:34;12.60;;;6.05;;
71671;SDS011;67659;45.554;11.812;2023-03-01T07:32:01;13.03;;;5.93;;
71671;SDS011;67659;45.554;11.812;2023-03-01T07:34:28;12.48;;;6.13;;
71671;SDS011;67659;45.554;11.812;2023-03-01T07:36:54;12.77;;;6.25;;
71671;SDS011;67659;45.554;11.812;2023-03-01T07:39:20;12.45;;;6.00;;
71671;SDS011;67659;45.554;11.812;2023-03-01T07:41:48;11.55;;;5.78;;
71671;SDS011;67659;45.554;11.812;2023-03-01T07:44:14;11.77;;;5.70;;
71671;SDS011;67659;45.554;11.812;2023-03-01T07:46:41;11.27;;;5.57;;
71671;SDS011;67659;45.554;11.812;2023-03-01T07:49:07;13.98;;;5.85;;
71671;SDS011;67659;45.554;11.812;2023-03-01T07:51:34;12.95;;;5.57;;
71671;SDS011;67659;45.554;11.812;2023-03-01T07:53:59;11.27;;;5.40;;
71671;SDS011;67659;45.554;11.812;2023-03-01T07:56:25;10.60;;;5.13;;
71671;SDS011;67659;45.554;11.812;2023-03-01T07:58:51;18.07;;;8.60;;
71671;SDS011;67659;45.554;11.812;2023-03-01T08:01:18;12.00;;;5.80;;
71671;SDS011;67659;45.554;11.812;2023-03-01T08:03:45;11.85;;;5.10;;
71671;SDS011;67659;45.554;11.812;2023-03-01T08:06:11;12.13;;;5.22;;
71671;SDS011;67659;45.554;11.812;2023-03-01T08:08:39;11.13;;;5.80;;
71671;SDS011;67659;45.554;11.812;2023-03-01T08:11:05;12.82;;;5.97;;
71671;SDS011;67659;45.554;11.812;2023-03-01T08:13:33;11.35;;;5.45;;
71671;SDS011;67659;45.554;11.812;2023-03-01T08:16:05;12.75;;;5.15;;
71671;SDS011;67659;45.554;11.812;2023-03-01T08:18:36;13.63;;;5.60;;
71671;SDS011;67659;45.554;11.812;2023-03-01T08:21:03;14.20;;;6.00;;
71671;SDS011;67659;45.554;11.812;2023-03-01T08:23:30;13.07;;;5.47;;
71671;SDS011;67659;45.554;11.812;2023-03-01T08:26:02;14.45;;;5.80;;
71671;SDS011;67659;45.554;11.812;2023-03-01T08:28:39;11.13;;;5.30;;
71671;SDS011;67659;45.554;11.812;2023-03-01T08:31:25;11.33;;;5.60;;
71671;SDS011;67659;45.554;11.812;2023-03-01T08:33:54;11.73;;;5.35;;
71671;SDS011;67659;45.554;11.812;2023-03-01T08:36:22;12.00;;;5.40;;
71671;SDS011;67659;45.554;11.812;2023-03-01T08:38:49;14.85;;;5.50;;
71671;SDS011;67659;45.554;11.812;2023-03-01T08:41:15;13.65;;;5.78;;
71671;SDS011;67659;45.554;11.812;2023-03-01T08:43:41;11.47;;;5.50;;
71671;SDS011;67659;45.554;11.812;2023-03-01T08:46:07;13.25;;;5.78;;
71671;SDS011;67659;45.554;11.812;2023-03-01T08:48:33;12.40;;;5.43;;
71671;SDS011;67659;45.554;11.812;2023-03-01T08:51:08;10.48;;;5.13;;
71671;SDS011;67659;45.554;11.812;2023-03-01T08:53:36;8.38;;;4.50;;
71671;SDS011;67659;45.554;11.812;2023-03-01T08:56:02;12.40;;;5.70;;
71671;SDS011;67659;45.554;11.812;2023-03-01T08:58:28;10.80;;;5.22;;
71671;SDS011;67659;45.554;11.812;2023-03-01T09:00:54;13.40;;;5.40;;
71671;SDS011;67659;45.554;11.812;2023-03-01T09:03:21;10.68;;;4.95;;
71671;SDS011;67659;45.554;11.812;2023-03-01T09:05:48;11.05;;;5.15;;
71671;SDS011;67659;45.554;11.812;2023-03-01T09:08:15;9.43;;;4.63;;
71671;SDS011;67659;45.554;11.812;2023-03-01T09:10:42;12.45;;;5.53;;
71671;SDS011;67659;45.554;11.812;2023-03-01T09:13:08;11.10;;;4.88;;
71671;SDS011;67659;45.554;11.812;2023-03-01T09:15:33;12.85;;;5.13;;
71671;SDS011;67659;45.554;11.812;2023-03-01T09:18:01;9.40;;;4.53;;
71671;SDS011;67659;45.554;11.812;2023-03-01T09:20:27;9.85;;;4.75;;
71671;SDS011;67659;45.554;11.812;2023-03-01T09:22:53;10.10;;;4.65;;
71671;SDS011;67659;45.554;11.812;2023-03-01T09:25:19;10.60;;;4.73;;
71671;SDS011;67659;45.554;11.812;2023-03-01T09:27:44;10.73;;;4.82;;
71671;SDS011;67659;45.554;11.812;2023-03-01T09:30:10;10.70;;;4.63;;
71671;SDS011;67659;45.554;11.812;2023-03-01T09:32:37;10.45;;;4.80;;
71671;SDS011;67659;45.554;11.812;2023-03-01T09:35:08;9.90;;;4.90;;
71671;SDS011;67659;45.554;11.812;2023-03-01T09:37:35;10.27;;;4.80;;
71671;SDS011;67659;45.554;11.812;2023-03-01T09:40:03;11.13;;;4.50;;
71671;SDS011;67659;45.554;11.812;2023-03-01T09:42:34;11.60;;;4.72;;
71671;SDS011;67659;45.554;11.812;2023-03-01T09:45:05;11.52;;;4.38;;
71671;SDS011;67659;45.554;11.812;2023-03-01T09:47:36;11.60;;;4.70;;
71671;SDS011;67659;45.554;11.812;2023-03-01T09:55:32;9.20;;;4.60;;
71671;SDS011;67659;45.554;11.812;2023-03-01T10:07:15;12.20;;;4.88;;
71671;SDS011;67659;45.554;11.812;2023-03-01T10:09:40;13.48;;;5.07;;
71671;SDS011;67659;45.554;11.812;2023-03-01T10:12:15;10.07;;;4.93;;
71671;SDS011;67659;45.554;11.812;2023-03-01T10:17:25;8.73;;;4.68;;
71671;SDS011;67659;45.554;11.812;2023-03-01T10:20:19;9.05;;;4.30;;
71671;SDS011;67659;45.554;11.812;2023-03-01T10:22:47;11.98;;;4.70;;
71671;SDS011;67659;45.554;11.812;2023-03-01T10:25:27;12.03;;;5.50;;
71671;SDS011;67659;45.554;11.812;2023-03-01T10:28:16;10.32;;;5.40;;
71671;SDS011;67659;45.554;11.812;2023-03-01T10:30:50;13.18;;;7.57;;
71671;SDS011;67659;45.554;11.812;2023-03-01T10:33:19;11.65;;;6.78;;
71671;SDS011;67659;45.554;11.812;2023-03-01T10:35:47;19.55;;;10.70;;
71671;SDS011;67659;45.554;11.812;2023-03-01T10:38:14;15.77;;;8.77;;
71671;SDS011;67659;45.554;11.812;2023-03-01T10:40:54;22.13;;;11.90;;
71671;SDS011;67659;45.554;11.812;2023-03-01T10:43:45;16.58;;;7.28;;
71671;SDS011;67659;45.554;11.812;2023-03-01T10:46:26;13.02;;;4.35;;
71671;SDS011;67659;45.554;11.812;2023-03-01T10:51:42;15.23;;;4.10;;
71671;SDS011;67659;45.554;11.812;2023-03-01T10:54:20;8.88;;;3.65;;
71671;SDS011;67659;45.554;11.812;2023-03-01T10:56:55;11.93;;;4.38;;
71671;SDS011;67659;45.554;11.812;2023-03-01T10:59:29;15.30;;;5.57;;
71671;SDS011;67659;45.554;11.812;2023-03-01T11:04:34;11.03;;;4.23;;
71671;SDS011;67659;45.554;11.812;2023-03-01T11:07:01;16.42;;;4.32;;
71671;SDS011;67659;45.554;11.812;2023-03-01T11:09:31;12.75;;;4.15;;
71671;SDS011;67659;45.554;11.812;2023-03-01T11:12:03;13.32;;;4.05;;
71671;SDS011;67659;45.554;11.812;2023-03-01T11:14:39;16.75;;;3.60;;
71671;SDS011;67659;45.554;11.812;2023-03-01T11:17:34;14.47;;;3.80;;
71671;SDS011;67659;45.554;11.812;2023-03-01T11:22:41;18.83;;;3.75;;
71671;SDS011;67659;45.554;11.812;2023-03-01T11:25:13;14.73;;;3.53;;
71671;SDS011;67659;45.554;11.812;2023-03-01T11:27:41;14.85;;;3.85;;
71671;SDS011;67659;45.554;11.812;2023-03-01T11:30:29;14.07;;;4.03;;
71671;SDS011;67659;45.554;11.812;2023-03-01T11:35:57;10.02;;;3.90;;
71671;SDS011;67659;45.554;11.812;2023-03-01T11:38:28;14.20;;;4.25;;
71671;SDS011;67659;45.554;11.812;2023-03-01T11:41:06;14.57;;;3.90;;
71671;SDS011;67659;45.554;11.812;2023-03-01T11:54:48;12.23;;;4.00;;
71671;SDS011;67659;45.554;11.812;2023-03-01T12:00:50;12.60;;;3.78;;
71671;SDS011;67659;45.554;11.812;2023-03-01T12:08:50;12.55;;;3.78;;
71671;SDS011;67659;45.554;11.812;2023-03-01T12:17:12;13.82;;;4.30;;
71671;SDS011;67659;45.554;11.812;2023-03-01T12:25:46;15.80;;;4.13;;
71671;SDS011;67659;45.554;11.812;2023-03-01T12:31:11;12.43;;;3.70;;
71671;SDS011;67659;45.554;11.812;2023-03-01T12:34:11;10.25;;;3.20;;
71671;SDS011;67659;45.554;11.812;2023-03-01T12:45:39;12.52;;;3.80;;
71671;SDS011;67659;45.554;11.812;2023-03-01T12:51:24;8.65;;;3.58;;
71671;SDS011;67659;45.554;11.812;2023-03-01T12:53:53;12.63;;;4.00;;
71671;SDS011;67659;45.554;11.812;2023-03-01T12:56:22;15.10;;;3.90;;
71671;SDS011;67659;45.554;11.812;2023-03-01T13:01:33;11.63;;;4.30;;
71671;SDS011;67659;45.554;11.812;2023-03-01T13:06:59;11.90;;;4.00;;
71671;SDS011;67659;45.554;11.812;2023-03-01T13:12:41;10.63;;;3.95;;
71671;SDS011;67659;45.554;11.812;2023-03-01T13:15:24;12.85;;;4.10;;
71671;SDS011;67659;45.554;11.812;2023-03-01T13:20:51;12.33;;;4.20;;
71671;SDS011;67659;45.554;11.812;2023-03-01T13:31:03;12.25;;;3.80;;
71671;SDS011;67659;45.554;11.812;2023-03-01T13:35:58;40.15;;;16.63;;
71671;SDS011;67659;45.554;11.812;2023-03-01T13:44:48;33.78;;;15.45;;
71671;SDS011;67659;45.554;11.812;2023-03-01T13:55:47;13.70;;;5.70;;
71671;SDS011;67659;45.554;11.812;2023-03-01T13:58:33;9.90;;;3.70;;
71671;SDS011;67659;45.554;11.812;2023-03-01T14:04:18;12.10;;;3.75;;
71671;SDS011;67659;45.554;11.812;2023-03-01T14:06:49;10.35;;;3.78;;
71671;SDS011;67659;45.554;11.812;2023-03-01T14:11:47;12.33;;;3.93;;
71671;SDS011;67659;45.554;11.812;2023-03-01T14:20:03;15.30;;;5.30;;
71671;SDS011;67659;45.554;11.812;2023-03-01T14:22:43;21.10;;;9.13;;
71671;SDS011;67659;45.554;11.812;2023-03-01T14:30:43;21.42;;;9.88;;
71671;SDS011;67659;45.554;11.812;2023-03-01T14:33:28;11.80;;;5.83;;
71671;SDS011;67659;45.554;11.812;2023-03-01T14:35:59;18.08;;;8.43;;
71671;SDS011;67659;45.554;11.812;2023-03-01T14:38:44;13.82;;;5.18;;
71671;SDS011;67659;45.554;11.812;2023-03-01T14:41:12;10.70;;;4.65;;
71671;SDS011;67659;45.554;11.812;2023-03-01T14:43:58;11.45;;;4.65;;
71671;SDS011;67659;45.554;11.812;2023-03-01T14:46:34;12.33;;;4.20;;
71671;SDS011;67659;45.554;11.812;2023-03-01T14:51:51;10.23;;;3.95;;
71671;SDS011;67659;45.554;11.812;2023-03-01T14:54:32;11.85;;;5.20;;
71671;SDS011;67659;45.554;11.812;2023-03-01T14:57:12;16.00;;;5.40;;
71671;SDS011;67659;45.554;11.812;2023-03-01T14:59:42;13.57;;;5.10;;
71671;SDS011;67659;45.554;11.812;2023-03-01T15:02:11;12.70;;;4.60;;
71671;SDS011;67659;45.554;11.812;2023-03-01T15:04:48;12.07;;;5.20;;
71671;SDS011;67659;45.554;11.812;2023-03-01T15:07:16;13.07;;;4.85;;
71671;SDS011;67659;45.554;11.812;2023-03-01T15:09:43;18.40;;;5.32;;
71671;SDS011;67659;45.554;11.812;2023-03-01T15:14:56;11.98;;;4.93;;
71671;SDS011;67659;45.554;11.812;2023-03-01T15:19:54;13.10;;;5.45;;
71671;SDS011;67659;45.554;11.812;2023-03-01T15:22:19;13.88;;;5.30;;
71671;SDS011;67659;45.554;11.812;2023-03-01T15:24:50;16.53;;;5.43;;
71671;SDS011;67659;45.554;11.812;2023-03-01T15:27:16;11.35;;;4.50;;
71671;SDS011;67659;45.554;11.812;2023-03-01T15:29:49;11.13;;;4.50;;
71671;SDS011;67659;45.554;11.812;2023-03-01T15:32:38;13.07;;;4.43;;
71671;SDS011;67659;45.554;11.812;2023-03-01T15:40:52;15.63;;;5.78;;
71671;SDS011;67659;45.554;11.812;2023-03-01T15:46:03;10.30;;;4.30;;
71671;SDS011;67659;45.554;11.812;2023-03-01T15:48:29;11.73;;;5.32;;
71671;SDS011;67659;45.554;11.812;2023-03-01T15:50:58;9.87;;;4.40;;
71671;SDS011;67659;45.554;11.812;2023-03-01T15:53:24;10.27;;;4.47;;
71671;SDS011;67659;45.554;11.812;2023-03-01T15:55:52;10.73;;;3.75;;
71671;SDS011;67659;45.554;11.812;2023-03-01T15:58:22;9.37;;;4.03;;
71671;SDS011;67659;45.554;11.812;2023-03-01T16:00:49;8.63;;;4.17;;
71671;SDS011;67659;45.554;11.812;2023-03-01T16:03:21;7.53;;;3.20;;
71671;SDS011;67659;45.554;11.812;2023-03-01T16:05:48;8.55;;;3.45;;
71671;SDS011;67659;45.554;11.812;2023-03-01T16:08:15;9.25;;;3.30;;
71671;SDS011;67659;45.554;11.812;2023-03-01T16:10:42;9.55;;;4.40;;
71671;SDS011;67659;45.554;11.812;2023-03-01T16:13:11;11.03;;;4.50;;
71671;SDS011;67659;45.554;11.812;2023-03-01T16:15:38;8.05;;;3.10;;
71671;SDS011;67659;45.554;11.812;2023-03-01T16:18:04;8.27;;;2.85;;
71671;SDS011;67659;45.554;11.812;2023-03-01T16:20:33;7.80;;;3.13;;
71671;SDS011;67659;45.554;11.812;2023-03-01T16:23:04;9.95;;;2.85;;
71671;SDS011;67659;45.554;11.812;2023-03-01T16:25:32;7.57;;;3.70;;
71671;SDS011;67659;45.554;11.812;2023-03-01T16:27:58;9.27;;;3.95;;
71671;SDS011;67659;45.554;11.812;2023-03-01T16:30:29;8.00;;;3.53;;
71671;SDS011;67659;45.554;11.812;2023-03-01T16:32:54;9.55;;;3.60;;
71671;SDS011;67659;45.554;11.812;2023-03-01T16:35:21;9.87;;;3.77;;
71671;SDS011;67659;45.554;11.812;2023-03-01T16:37:48;7.63;;;3.50;;
71671;SDS011;67659;45.554;11.812;2023-03-01T16:40:24;9.85;;;3.85;;
71671;SDS011;67659;45.554;11.812;2023-03-01T16:42:52;8.50;;;3.05;;
71671;SDS011;67659;45.554;11.812;2023-03-01T16:45:20;10.00;;;4.28;;
71671;SDS011;67659;45.554;11.812;2023-03-01T16:47:47;7.73;;;2.90;;
71671;SDS011;67659;45.554;11.812;2023-03-01T16:50:12;13.13;;;4.03;;
71671;SDS011;67659;45.554;11.812;2023-03-01T16:52:38;9.90;;;4.30;;
71671;SDS011;67659;45.554;11.812;2023-03-01T16:55:04;10.25;;;3.92;;
71671;SDS011;67659;45.554;11.812;2023-03-01T16:57:35;10.07;;;2.83;;
71671;SDS011;67659;45.554;11.812;2023-03-01T17:00:03;9.88;;;4.28;;
71671;SDS011;67659;45.554;11.812;2023-03-01T17:02:32;10.75;;;4.47;;
71671;SDS011;67659;45.554;11.812;2023-03-01T17:05:01;7.50;;;3.20;;
71671;SDS011;67659;45.554;11.812;2023-03-01T17:07:28;6.40;;;2.45;;